Time;durP1;ratioP1;P1;durP2;ratioP2;P2;SDS_P1;SDS_P2;PMS_P1;PMS_P2;Temp;Humidity;BMP_temperature;BMP_pressure;BME280_temperature;BME280_humidity;BME280_pressure;Samples;Min_cycle;Max_cycle;Signal;HPM_P1;HPM_P2
2023/08/14 00:00:28;;;;;;;8.10;4.37;;;;;;;;;;5052495;28;20179;-87
2023/08/14 00:02:54;;;;;;;10.43;4.77;;;;;;;;;;5060097;28;20200;-86
2023/08/14 00:05:20;;;;;;;10.47;4.73;;;;;;;;;;5048167;28;20180;-86
2023/08/14 00:07:48;;;;;;;7.47;4.97;;;;;;;;;;5051003;28;20171;-87
2023/08/14 00:10:14;;;;;;;7.53;5.00;;;;;;;;;;5051694;28;20187;-87
2023/08/14 00:12:40;;;;;;;5.47;4.53;;;;;;;;;;5045990;28;20190;-87
2023/08/14 00:15:10;;;;;;;6.80;4.73;;;;;;;;;;5056831;28;20179;-89
2023/08/14 00:17:36;;;;;;;8.57;4.73;;;;;;;;;;5053925;28;20186;-87
2023/08/14 00:20:04;;;;;;;9.60;4.90;;;;;;;;;;5036664;28;20202;-88
2023/08/14 00:22:30;;;;;;;8.47;4.67;;;;;;;;;;5052824;28;20188;-87
2023/08/14 00:24:56;;;;;;;5.37;4.40;;;;;;;;;;5053674;28;20301;-87
2023/08/14 00:27:24;;;;;;;9.20;5.03;;;;;;;;;;5056492;28;20247;-87
2023/08/14 00:29:53;;;;;;;10.17;5.20;;;;;;;;;;5054100;28;20185;-87
2023/08/14 00:32:19;;;;;;;11.53;5.30;;;;;;;;;;5053476;28;20183;-86
2023/08/14 00:34:45;;;;;;;8.67;4.80;;;;;;;;;;5056270;28;20187;-86
2023/08/14 00:37:11;;;;;;;7.10;4.60;;;;;;;;;;5053067;28;20258;-86
2023/08/14 00:39:39;;;;;;;9.57;5.00;;;;;;;;;;5045223;28;20203;-87
2023/08/14 00:42:05;;;;;;;7.10;5.20;;;;;;;;;;5056104;28;20236;-88
2023/08/14 00:44:31;;;;;;;10.20;5.33;;;;;;;;;;5052877;28;20203;-86
2023/08/14 00:46:58;;;;;;;7.33;5.33;;;;;;;;;;5054826;28;20222;-88
2023/08/14 00:49:24;;;;;;;9.77;5.07;;;;;;;;;;5052730;28;20175;-87
2023/08/14 00:51:50;;;;;;;8.73;5.00;;;;;;;;;;5047044;28;20172;-86
2023/08/14 00:54:16;;;;;;;8.33;5.00;;;;;;;;;;5034189;28;20183;-88
2023/08/14 00:56:44;;;;;;;7.03;5.07;;;;;;;;;;5069617;28;20269;-87
2023/08/14 00:59:11;;;;;;;5.37;4.60;;;;;;;;;;5055968;28;20175;-86
2023/08/14 01:01:37;;;;;;;8.73;4.90;;;;;;;;;;5052517;28;20188;-87
2023/08/14 01:04:05;;;;;;;9.50;4.80;;;;;;;;;;5032909;28;20231;-87
2023/08/14 01:06:31;;;;;;;7.60;5.10;;;;;;;;;;5052026;28;20172;-86
2023/08/14 01:08:57;;;;;;;6.40;4.63;;;;;;;;;;5051921;28;20184;-86
2023/08/14 01:11:33;;;;;;;7.97;5.07;;;;;;;;;;5034827;28;20179;-87
2023/08/14 01:14:12;;;;;;;7.00;4.50;;;;;;;;;;5035360;28;20182;-86
2023/08/14 01:16:44;;;;;;;6.63;5.80;;;;;;;;;;5035652;28;20183;-87
2023/08/14 01:19:22;;;;;;;9.07;5.63;;;;;;;;;;5025233;28;20266;-86
2023/08/14 01:21:54;;;;;;;7.17;5.03;;;;;;;;;;5036033;28;20186;-87
2023/08/14 01:24:23;;;;;;;6.73;5.03;;;;;;;;;;5038412;28;20212;-86
2023/08/14 01:26:50;;;;;;;6.37;5.10;;;;;;;;;;5040250;28;20266;-88
2023/08/14 01:29:16;;;;;;;6.17;4.43;;;;;;;;;;5039319;28;20176;-86
2023/08/14 01:31:42;;;;;;;7.93;4.97;;;;;;;;;;5039924;28;20172;-87
2023/08/14 01:34:09;;;;;;;8.20;5.43;;;;;;;;;;5039935;28;20184;-87
2023/08/14 01:36:50;;;;;;;6.23;5.63;;;;;;;;;;5039248;28;20207;-87
2023/08/14 01:39:18;;;;;;;8.13;5.53;;;;;;;;;;5036624;28;20181;-87
2023/08/14 01:41:56;;;;;;;8.83;5.37;;;;;;;;;;5052747;28;20184;-86
2023/08/14 01:44:25;;;;;;;10.07;5.23;;;;;;;;;;5056413;28;20210;-86
2023/08/14 01:46:51;;;;;;;9.00;5.07;;;;;;;;;;5056372;28;20168;-87
2023/08/14 01:49:20;;;;;;;7.57;5.27;;;;;;;;;;5033950;28;20199;-86
2023/08/14 01:51:47;;;;;;;7.27;5.23;;;;;;;;;;5052926;28;20210;-86
2023/08/14 01:54:13;;;;;;;8.80;5.80;;;;;;;;;;5036644;28;20189;-86
2023/08/14 01:56:42;;;;;;;7.33;5.23;;;;;;;;;;5039601;28;20273;-87
2023/08/14 01:59:08;;;;;;;8.07;5.30;;;;;;;;;;5039436;28;20187;-87
2023/08/14 02:01:34;;;;;;;7.67;5.37;;;;;;;;;;5038815;28;20187;-87
2023/08/14 02:04:00;;;;;;;8.00;5.10;;;;;;;;;;5036768;28;20319;-87
2023/08/14 02:06:31;;;;;;;8.33;5.23;;;;;;;;;;5054215;28;20239;-87
2023/08/14 02:08:57;;;;;;;8.20;5.53;;;;;;;;;;5039257;28;20175;-86
2023/08/14 02:11:25;;;;;;;7.13;5.00;;;;;;;;;;5023127;28;20183;-86
2023/08/14 02:13:51;;;;;;;9.10;5.47;;;;;;;;;;5039704;28;20230;-87
2023/08/14 02:16:17;;;;;;;6.20;5.10;;;;;;;;;;5023115;28;20184;-86
2023/08/14 02:18:43;;;;;;;8.07;5.30;;;;;;;;;;5039195;28;20187;-87
2023/08/14 02:21:12;;;;;;;9.97;5.53;;;;;;;;;;5039401;28;20176;-87
2023/08/14 02:23:38;;;;;;;9.47;5.33;;;;;;;;;;5039186;28;20219;-86
2023/08/14 02:26:04;;;;;;;7.30;5.80;;;;;;;;;;5039157;28;20172;-86
2023/08/14 02:28:32;;;;;;;7.83;5.17;;;;;;;;;;5055537;28;20176;-87
2023/08/14 02:31:03;;;;;;;6.00;5.30;;;;;;;;;;5055379;28;20172;-87
2023/08/14 02:33:31;;;;;;;8.70;5.07;;;;;;;;;;5039436;28;20310;-86
2023/08/14 02:35:57;;;;;;;6.77;5.70;;;;;;;;;;5037708;28;20204;-87
2023/08/14 02:38:23;;;;;;;9.30;6.53;;;;;;;;;;5055678;28;20187;-87
2023/08/14 02:40:49;;;;;;;7.73;6.13;;;;;;;;;;5022616;28;20180;-86
2023/08/14 02:43:18;;;;;;;7.20;5.83;;;;;;;;;;5022395;28;20211;-87
2023/08/14 02:45:44;;;;;;;8.93;5.80;;;;;;;;;;5038937;28;20180;-86
2023/08/14 02:48:10;;;;;;;8.70;6.57;;;;;;;;;;5039213;28;20183;-86
2023/08/14 02:50:39;;;;;;;8.80;6.07;;;;;;;;;;5055337;28;20271;-86
2023/08/14 02:53:05;;;;;;;9.00;6.37;;;;;;;;;;5022548;28;20194;-86
2023/08/14 02:55:31;;;;;;;8.13;6.03;;;;;;;;;;5055258;28;20191;-85
2023/08/14 02:57:57;;;;;;;6.33;5.73;;;;;;;;;;5055467;28;20184;-85
2023/08/14 03:00:26;;;;;;;7.80;5.73;;;;;;;;;;5022055;28;20242;-86
2023/08/14 03:02:52;;;;;;;7.43;5.77;;;;;;;;;;5056840;28;20183;-85
2023/08/14 03:05:19;;;;;;;8.27;5.07;;;;;;;;;;5041960;28;20186;-85
2023/08/14 03:07:45;;;;;;;7.23;5.43;;;;;;;;;;5075341;28;20175;-86
2023/08/14 03:10:11;;;;;;;6.23;5.27;;;;;;;;;;5050056;28;20207;-86
2023/08/14 03:12:37;;;;;;;5.93;5.13;;;;;;;;;;5074753;28;20186;-86
2023/08/14 03:15:04;;;;;;;5.73;5.00;;;;;;;;;;5058308;28;20187;-86
2023/08/14 03:17:33;;;;;;;7.87;5.10;;;;;;;;;;5074756;28;20183;-86
2023/08/14 03:19:59;;;;;;;6.50;5.17;;;;;;;;;;5075115;28;20190;-86
2023/08/14 03:22:25;;;;;;;7.50;5.30;;;;;;;;;;5074949;28;20183;-85
2023/08/14 03:24:54;;;;;;;6.63;5.50;;;;;;;;;;5074766;28;20211;-86
2023/08/14 03:27:20;;;;;;;8.30;5.43;;;;;;;;;;5074943;28;20195;-85
2023/08/14 03:29:46;;;;;;;7.87;5.23;;;;;;;;;;5074960;28;20183;-86
2023/08/14 03:32:12;;;;;;;7.17;5.43;;;;;;;;;;5075052;28;20175;-86
2023/08/14 03:34:40;;;;;;;7.53;5.50;;;;;;;;;;5066352;28;20218;-85
2023/08/14 03:37:06;;;;;;;6.90;5.00;;;;;;;;;;5057100;28;20205;-86
2023/08/14 03:39:32;;;;;;;7.70;5.33;;;;;;;;;;5057744;28;20186;-85
2023/08/14 03:42:01;;;;;;;7.90;5.70;;;;;;;;;;5058262;28;20183;-86
2023/08/14 03:44:27;;;;;;;9.33;5.17;;;;;;;;;;5056937;28;20268;-85
2023/08/14 03:46:53;;;;;;;7.00;5.07;;;;;;;;;;5057373;28;20171;-86
2023/08/14 03:49:19;;;;;;;8.20;5.43;;;;;;;;;;5033570;28;20186;-86
2023/08/14 03:51:45;;;;;;;6.63;5.10;;;;;;;;;;5074266;28;20187;-86
2023/08/14 03:54:11;;;;;;;7.87;5.47;;;;;;;;;;5073473;28;20179;-87
2023/08/14 03:56:37;;;;;;;7.60;5.30;;;;;;;;;;5074011;28;20195;-87
2023/08/14 03:59:04;;;;;;;7.50;5.63;;;;;;;;;;5040646;28;20179;-87
2023/08/14 04:01:34;;;;;;;7.07;6.17;;;;;;;;;;5057613;28;20187;-86
2023/08/14 04:04:00;;;;;;;7.77;5.60;;;;;;;;;;5054080;28;20239;-87
2023/08/14 04:06:26;;;;;;;7.77;6.40;;;;;;;;;;5037261;28;20267;-86
2023/08/14 04:08:54;;;;;;;6.63;6.00;;;;;;;;;;5037937;28;20183;-86
2023/08/14 04:11:21;;;;;;;8.17;6.83;;;;;;;;;;5037544;28;20262;-86
2023/08/14 04:13:47;;;;;;;8.60;6.10;;;;;;;;;;5037439;28;20219;-86
2023/08/14 04:16:13;;;;;;;10.03;6.90;;;;;;;;;;5037640;28;20213;-88
2023/08/14 04:18:39;;;;;;;9.27;6.83;;;;;;;;;;5037175;28;20279;-86
2023/08/14 04:21:05;;;;;;;9.47;6.73;;;;;;;;;;5037248;28;20211;-87
2023/08/14 04:23:31;;;;;;;7.80;6.23;;;;;;;;;;5037170;28;20203;-87
2023/08/14 04:25:57;;;;;;;7.30;6.60;;;;;;;;;;5036844;28;20267;-87
2023/08/14 04:28:23;;;;;;;9.80;7.50;;;;;;;;;;5036430;28;20213;-87
2023/08/14 04:30:50;;;;;;;10.57;6.80;;;;;;;;;;5036459;28;20184;-88
2023/08/14 04:33:17;;;;;;;10.50;7.53;;;;;;;;;;5042954;28;20187;-87
2023/08/14 04:35:43;;;;;;;9.07;7.47;;;;;;;;;;5073284;28;20186;-88
2023/08/14 04:38:11;;;;;;;11.17;7.80;;;;;;;;;;5058736;28;20317;-88
2023/08/14 04:40:37;;;;;;;8.10;7.20;;;;;;;;;;5036763;28;20184;-88
2023/08/14 04:43:03;;;;;;;8.50;7.17;;;;;;;;;;5036951;28;20278;-88
2023/08/14 04:45:32;;;;;;;6.90;6.20;;;;;;;;;;5036677;28;20191;-87
2023/08/14 04:47:58;;;;;;;8.73;7.30;;;;;;;;;;5036216;28;20164;-88
2023/08/14 04:50:24;;;;;;;8.17;6.83;;;;;;;;;;5036199;28;20184;-88
2023/08/14 04:52:50;;;;;;;8.40;7.50;;;;;;;;;;5036369;28;20238;-87
2023/08/14 04:55:18;;;;;;;9.13;7.60;;;;;;;;;;5036658;28;20243;-88
2023/08/14 04:57:44;;;;;;;8.70;7.67;;;;;;;;;;5035188;28;20184;-88
2023/08/14 05:00:11;;;;;;;10.73;7.40;;;;;;;;;;5035696;28;20230;-88
2023/08/14 05:02:40;;;;;;;9.37;7.30;;;;;;;;;;5052499;28;20233;-88
2023/08/14 05:05:06;;;;;;;9.13;8.00;;;;;;;;;;5043381;28;20225;-87
2023/08/14 05:07:32;;;;;;;9.40;7.40;;;;;;;;;;5032216;28;20181;-88
2023/08/14 05:09:58;;;;;;;9.47;7.50;;;;;;;;;;5033388;28;20180;-87
2023/08/14 05:12:27;;;;;;;8.90;8.00;;;;;;;;;;5036117;28;20258;-86
2023/08/14 05:14:53;;;;;;;10.27;8.47;;;;;;;;;;5036229;28;20176;-87
2023/08/14 05:17:19;;;;;;;10.57;8.63;;;;;;;;;;5035849;28;20176;-86
2023/08/14 05:19:48;;;;;;;10.73;8.63;;;;;;;;;;5034674;28;20179;-87
2023/08/14 05:22:14;;;;;;;14.13;9.63;;;;;;;;;;5036337;28;20180;-87
2023/08/14 05:24:40;;;;;;;14.03;9.80;;;;;;;;;;5036260;28;20261;-86
2023/08/14 05:27:06;;;;;;;11.97;10.67;;;;;;;;;;5019566;28;20191;-86
2023/08/14 05:29:32;;;;;;;12.32;10.43;;;;;;;;;;5018867;28;20409;-86
2023/08/14 05:31:59;;;;;;;11.07;9.20;;;;;;;;;;5019532;28;20183;-86
2023/08/14 05:34:25;;;;;;;9.73;8.73;;;;;;;;;;5035866;28;20184;-87
2023/08/14 05:36:51;;;;;;;10.47;9.47;;;;;;;;;;5052654;28;20283;-86
2023/08/14 05:39:18;;;;;;;9.47;8.47;;;;;;;;;;5052309;28;20275;-86
2023/08/14 05:41:46;;;;;;;10.00;9.00;;;;;;;;;;5035886;28;20187;-86
2023/08/14 05:44:12;;;;;;;14.40;9.50;;;;;;;;;;5035838;28;20234;-87
2023/08/14 05:46:42;;;;;;;12.07;10.57;;;;;;;;;;5019313;28;20275;-87
2023/08/14 05:49:08;;;;;;;13.73;11.07;;;;;;;;;;5035614;28;20172;-87
2023/08/14 05:51:34;;;;;;;15.97;12.73;;;;;;;;;;5036218;28;20172;-86
2023/08/14 05:54:02;;;;;;;17.47;12.90;;;;;;;;;;5035882;28;20180;-86
2023/08/14 05:56:28;;;;;;;18.77;13.93;;;;;;;;;;5035782;28;20207;-86
2023/08/14 05:58:57;;;;;;;16.17;13.27;;;;;;;;;;5019404;28;20411;-85
2023/08/14 06:01:26;;;;;;;14.33;12.43;;;;;;;;;;5019679;28;20188;-86
2023/08/14 06:03:54;;;;;;;16.47;14.00;;;;;;;;;;5045367;28;20231;-86
2023/08/14 06:06:23;;;;;;;16.30;14.70;;;;;;;;;;5055275;28;20414;-86
2023/08/14 06:08:49;;;;;;;16.65;13.43;;;;;;;;;;5055111;28;20513;-86
2023/08/14 06:11:15;;;;;;;14.83;12.40;;;;;;;;;;5059098;28;20179;-86
2023/08/14 06:13:41;;;;;;;24.83;15.87;;;;;;;;;;5059307;28;20175;-86
2023/08/14 06:16:10;;;;;;;20.63;14.27;;;;;;;;;;5059114;28;20203;-86
2023/08/14 06:18:36;;;;;;;21.70;15.57;;;;;;;;;;5058997;28;20237;-86
2023/08/14 06:21:02;;;;;;;20.50;16.53;;;;;;;;;;5059220;28;20183;-86
2023/08/14 06:23:30;;;;;;;21.27;16.20;;;;;;;;;;5059185;28;20203;-86
2023/08/14 06:25:58;;;;;;;19.33;16.70;;;;;;;;;;5059112;28;20182;-87
2023/08/14 06:28:24;;;;;;;21.27;17.00;;;;;;;;;;5059079;28;20175;-87
2023/08/14 06:30:52;;;;;;;19.53;16.03;;;;;;;;;;5058872;28;20186;-85
2023/08/14 06:33:18;;;;;;;20.67;16.70;;;;;;;;;;5058679;28;20261;-85
2023/08/14 06:35:44;;;;;;;20.30;18.10;;;;;;;;;;5058599;28;20182;-86
2023/08/14 06:38:10;;;;;;;18.73;16.50;;;;;;;;;;5059709;28;20190;-87
2023/08/14 06:40:36;;;;;;;20.17;16.87;;;;;;;;;;5058912;28;20183;-86
2023/08/14 06:43:03;;;;;;;22.88;18.75;;;;;;;;;;5058501;28;20414;-86
2023/08/14 06:45:29;;;;;;;19.37;16.10;;;;;;;;;;5059291;28;20174;-87
2023/08/14 06:47:55;;;;;;;19.40;17.40;;;;;;;;;;5059049;28;20179;-86
2023/08/14 06:50:23;;;;;;;25.10;18.40;;;;;;;;;;5059004;28;20175;-87
2023/08/14 06:52:49;;;;;;;22.60;18.40;;;;;;;;;;5058937;28;20175;-87
2023/08/14 06:55:15;;;;;;;26.90;18.53;;;;;;;;;;5058790;28;20171;-86
2023/08/14 06:57:41;;;;;;;21.40;18.17;;;;;;;;;;5058559;28;20175;-86
2023/08/14 07:00:13;;;;;;;24.30;17.80;;;;;;;;;;5054297;28;20187;-87
2023/08/14 07:02:39;;;;;;;22.17;16.23;;;;;;;;;;5074886;28;20258;-87
2023/08/14 07:05:08;;;;;;;21.73;18.80;;;;;;;;;;5055416;28;20447;-86
2023/08/14 07:07:34;;;;;;;21.10;17.43;;;;;;;;;;5021959;28;20463;-86
2023/08/14 07:10:00;;;;;;;24.37;18.20;;;;;;;;;;5016764;28;20176;-86
2023/08/14 07:12:28;;;;;;;23.17;17.30;;;;;;;;;;5040897;28;20177;-86
2023/08/14 07:14:54;;;;;;;20.97;17.57;;;;;;;;;;5054107;28;20241;-86
2023/08/14 07:17:20;;;;;;;21.80;17.00;;;;;;;;;;5018096;28;20267;-87
2023/08/14 07:19:47;;;;;;;18.90;16.90;;;;;;;;;;5035254;28;20180;-86
2023/08/14 07:22:13;;;;;;;17.13;15.27;;;;;;;;;;5011043;28;20200;-87
2023/08/14 07:24:39;;;;;;;24.47;14.90;;;;;;;;;;5045718;28;20239;-86
2023/08/14 07:27:05;;;;;;;21.20;14.13;;;;;;;;;;5054249;28;20263;-87
2023/08/14 07:29:31;;;;;;;17.83;15.20;;;;;;;;;;5054965;28;20180;-87
2023/08/14 07:32:00;;;;;;;23.73;16.37;;;;;;;;;;5054006;28;20172;-86
2023/08/14 07:34:26;;;;;;;23.90;16.57;;;;;;;;;;5054364;28;20274;-86
2023/08/14 07:36:52;;;;;;;19.23;14.90;;;;;;;;;;5054418;28;20211;-87
2023/08/14 07:39:18;;;;;;;19.57;14.03;;;;;;;;;;5054285;28;20230;-85
2023/08/14 07:41:44;;;;;;;20.30;12.87;;;;;;;;;;5054109;28;20180;-87
2023/08/14 07:44:11;;;;;;;19.87;13.90;;;;;;;;;;5054224;28;20212;-86
2023/08/14 07:46:37;;;;;;;21.87;15.67;;;;;;;;;;5054190;28;20180;-86
2023/08/14 07:49:03;;;;;;;20.27;15.87;;;;;;;;;;5054086;28;20202;-87
2023/08/14 07:51:29;;;;;;;19.73;15.73;;;;;;;;;;5037436;28;20180;-87
2023/08/14 07:53:55;;;;;;;18.23;14.37;;;;;;;;;;5053709;28;20184;-86
2023/08/14 07:56:21;;;;;;;19.20;14.53;;;;;;;;;;5037438;28;20207;-87
2023/08/14 07:58:47;;;;;;;17.43;13.43;;;;;;;;;;5037447;28;20192;-86
2023/08/14 08:01:17;;;;;;;16.40;13.47;;;;;;;;;;5037276;28;20188;-87
2023/08/14 08:03:43;;;;;;;17.20;12.47;;;;;;;;;;5056817;28;20231;-86
2023/08/14 08:06:09;;;;;;;22.23;14.37;;;;;;;;;;5073646;28;20229;-87
2023/08/14 08:08:38;;;;;;;18.70;14.10;;;;;;;;;;5057115;28;20183;-86
2023/08/14 08:11:04;;;;;;;18.00;13.63;;;;;;;;;;5073908;28;20220;-86
2023/08/14 08:13:30;;;;;;;22.10;14.23;;;;;;;;;;5056894;28;20182;-86
2023/08/14 08:15:56;;;;;;;21.90;16.27;;;;;;;;;;5073267;28;20414;-86
2023/08/14 08:18:24;;;;;;;20.53;15.77;;;;;;;;;;5072536;28;20417;-87
2023/08/14 08:20:50;;;;;;;20.20;14.77;;;;;;;;;;5072902;28;20420;-87
2023/08/14 08:23:17;;;;;;;19.10;14.88;;;;;;;;;;5055837;28;20431;-86
2023/08/14 08:25:43;;;;;;;19.50;12.90;;;;;;;;;;5072496;28;20406;-84
2023/08/14 08:28:09;;;;;;;18.25;13.25;;;;;;;;;;5055939;28;20410;-84
2023/08/14 08:30:35;;;;;;;15.23;10.10;;;;;;;;;;5072323;28;20398;-87
2023/08/14 08:33:01;;;;;;;16.27;9.70;;;;;;;;;;5072319;28;20481;-87
2023/08/14 08:35:27;;;;;;;16.30;9.90;;;;;;;;;;5072084;28;20399;-86
2023/08/14 08:37:53;;;;;;;15.48;10.75;;;;;;;;;;5036430;28;20501;-86
2023/08/14 08:40:19;;;;;;;14.48;9.73;;;;;;;;;;5037014;28;20270;-85
2023/08/14 08:42:46;;;;;;;15.27;9.13;;;;;;;;;;5052783;28;20721;-87
2023/08/14 08:45:15;;;;;;;14.05;9.90;;;;;;;;;;5051303;28;20233;-85
2023/08/14 08:47:41;;;;;;;15.18;9.60;;;;;;;;;;5071623;28;20422;-87
2023/08/14 08:50:09;;;;;;;12.90;6.35;;;;;;;;;;5071105;28;20406;-87
2023/08/14 08:52:37;;;;;;;10.40;5.43;;;;;;;;;;5072982;28;20186;-87
2023/08/14 08:55:04;;;;;;;11.50;5.25;;;;;;;;;;5071220;28;20426;-86
2023/08/14 08:57:30;;;;;;;10.13;5.00;;;;;;;;;;5072419;28;20410;-87
2023/08/14 08:59:58;;;;;;;12.67;5.10;;;;;;;;;;5072370;28;20418;-86
2023/08/14 09:02:24;;;;;;;8.95;4.90;;;;;;;;;;5073137;28;20183;-87
2023/08/14 09:04:50;;;;;;;11.73;4.70;;;;;;;;;;5072706;28;20218;-88
2023/08/14 09:07:16;;;;;;;12.13;5.10;;;;;;;;;;5072627;28;20413;-87
2023/08/14 09:09:42;;;;;;;10.48;5.40;;;;;;;;;;5071647;28;20414;-87
2023/08/14 09:12:08;;;;;;;8.00;4.30;;;;;;;;;;5072007;28;20417;-87
2023/08/14 09:14:34;;;;;;;9.43;3.90;;;;;;;;;;5071799;28;20414;-87
2023/08/14 09:17:02;;;;;;;9.70;3.88;;;;;;;;;;5072030;28;20410;-87
2023/08/14 09:19:31;;;;;;;10.25;4.07;;;;;;;;;;5071940;28;20409;-87
2023/08/14 09:21:57;;;;;;;11.82;4.25;;;;;;;;;;5072093;28;20414;-88
2023/08/14 09:24:23;;;;;;;11.07;3.93;;;;;;;;;;5037353;28;20426;-86
2023/08/14 09:26:49;;;;;;;8.80;4.30;;;;;;;;;;5024101;28;20441;-87
2023/08/14 09:29:16;;;;;;;9.43;4.10;;;;;;;;;;5035501;28;20466;-86
2023/08/14 09:31:46;;;;;;;11.02;4.20;;;;;;;;;;5035478;28;20489;-87
2023/08/14 09:34:21;;;;;;;8.38;3.95;;;;;;;;;;5035529;28;20447;-87
2023/08/14 09:36:49;;;;;;;10.35;4.35;;;;;;;;;;5035195;28;20469;-89
2023/08/14 09:39:15;;;;;;;9.57;4.50;;;;;;;;;;5035361;28;20418;-88
2023/08/14 09:41:48;;;;;;;9.35;4.20;;;;;;;;;;5034971;28;20516;-87
2023/08/14 09:44:14;;;;;;;9.68;4.35;;;;;;;;;;5035172;28;20428;-88
2023/08/14 09:46:41;;;;;;;8.30;4.20;;;;;;;;;;5038305;28;20432;-87
2023/08/14 09:49:07;;;;;;;8.87;4.00;;;;;;;;;;5039032;28;20426;-88
2023/08/14 09:51:33;;;;;;;9.23;4.00;;;;;;;;;;5039431;28;20403;-89
2023/08/14 09:54:00;;;;;;;9.33;4.17;;;;;;;;;;5039711;28;20415;-88
2023/08/14 09:56:26;;;;;;;9.68;4.32;;;;;;;;;;5039173;28;20424;-88
2023/08/14 09:58:55;;;;;;;9.40;4.07;;;;;;;;;;5038894;28;20415;-87
2023/08/14 10:01:22;;;;;;;8.90;3.60;;;;;;;;;;5038959;28;20414;-87
2023/08/14 10:03:54;;;;;;;8.50;4.03;;;;;;;;;;5038423;28;20426;-88
2023/08/14 10:06:24;;;;;;;11.05;4.13;;;;;;;;;;5038894;28;20408;-88
2023/08/14 10:08:53;;;;;;;7.28;3.70;;;;;;;;;;5038537;28;20403;-87
2023/08/14 10:11:19;;;;;;;9.63;3.75;;;;;;;;;;5039161;28;20458;-87
2023/08/14 10:13:46;;;;;;;10.60;3.63;;;;;;;;;;5039194;28;20499;-87
2023/08/14 10:16:21;;;;;;;8.65;3.75;;;;;;;;;;5039094;28;20416;-88
2023/08/14 10:18:50;;;;;;;9.68;3.90;;;;;;;;;;5039048;28;20461;-88
2023/08/14 10:21:18;;;;;;;8.23;3.70;;;;;;;;;;5038898;28;20449;-86
2023/08/14 10:23:45;;;;;;;8.80;3.70;;;;;;;;;;5038677;28;20444;-86
2023/08/14 10:26:15;;;;;;;9.23;3.75;;;;;;;;;;5039052;28;20480;-87
2023/08/14 10:28:42;;;;;;;8.00;3.40;;;;;;;;;;5039042;28;20461;-86
2023/08/14 10:31:12;;;;;;;7.18;3.40;;;;;;;;;;5038536;28;20408;-87
2023/08/14 10:37:27;;;;;;;8.63;3.90;;;;;;;;;;5032868;28;20458;-87
2023/08/14 10:39:57;;;;;;;10.95;3.90;;;;;;;;;;5038006;28;20447;-87
2023/08/14 10:42:24;;;;;;;5.75;3.05;;;;;;;;;;5038153;28;20410;-87
2023/08/14 10:44:50;;;;;;;6.30;2.72;;;;;;;;;;5038172;28;20535;-87
2023/08/14 10:47:16;;;;;;;9.00;3.50;;;;;;;;;;5038541;28;20409;-88
2023/08/14 10:49:46;;;;;;;7.45;3.15;;;;;;;;;;5038052;28;20400;-89
2023/08/14 10:52:13;;;;;;;7.57;3.00;;;;;;;;;;5038049;28;20447;-87
2023/08/14 10:54:42;;;;;;;7.88;2.58;;;;;;;;;;5038347;28;20415;-87
2023/08/14 10:57:11;;;;;;;6.53;2.88;;;;;;;;;;5036940;28;20411;-88
2023/08/14 10:59:39;;;;;;;6.63;2.90;;;;;;;;;;5038128;28;20408;-86
2023/08/14 11:02:15;;;;;;;7.70;3.10;;;;;;;;;;5038872;28;20412;-88
2023/08/14 11:05:02;;;;;;;7.90;2.80;;;;;;;;;;5037547;28;20442;-88
2023/08/14 11:07:29;;;;;;;5.53;2.72;;;;;;;;;;5038058;28;20435;-86
2023/08/14 11:09:57;;;;;;;6.13;2.70;;;;;;;;;;5038380;28;20396;-89
2023/08/14 11:12:26;;;;;;;6.60;2.50;;;;;;;;;;5037651;28;20435;-87
2023/08/14 11:14:54;;;;;;;6.75;2.50;;;;;;;;;;5037587;28;20400;-88
2023/08/14 11:17:23;;;;;;;5.90;2.50;;;;;;;;;;5038445;28;20408;-87
2023/08/14 11:19:49;;;;;;;5.03;2.35;;;;;;;;;;5037811;28;20408;-87
2023/08/14 11:22:16;;;;;;;6.60;2.58;;;;;;;;;;5037600;28;20451;-88
2023/08/14 11:24:42;;;;;;;5.00;2.30;;;;;;;;;;5037684;28;20428;-87
2023/08/14 11:27:08;;;;;;;6.68;2.30;;;;;;;;;;5037772;28;20404;-87
2023/08/14 11:29:37;;;;;;;5.60;2.70;;;;;;;;;;5037559;28;20404;-88
2023/08/14 11:32:03;;;;;;;5.35;2.30;;;;;;;;;;5037238;28;20453;-89
2023/08/14 11:34:33;;;;;;;5.97;2.30;;;;;;;;;;5037304;28;20408;-87
2023/08/14 11:37:01;;;;;;;5.55;2.30;;;;;;;;;;5036979;28;20416;-87
2023/08/14 11:39:29;;;;;;;5.35;2.65;;;;;;;;;;5037327;28;20455;-89
2023/08/14 11:41:55;;;;;;;5.43;2.60;;;;;;;;;;5036258;28;20404;-88
2023/08/14 11:44:21;;;;;;;5.93;2.60;;;;;;;;;;5037004;28;20429;-88
2023/08/14 11:46:48;;;;;;;6.65;2.70;;;;;;;;;;5036316;28;20427;-88
2023/08/14 11:49:15;;;;;;;5.70;2.72;;;;;;;;;;5036990;28;20404;-90
2023/08/14 11:51:41;;;;;;;5.40;2.23;;;;;;;;;;5036471;28;20514;-89
2023/08/14 11:54:08;;;;;;;4.93;2.38;;;;;;;;;;5055371;28;20437;-85
2023/08/14 11:56:35;;;;;;;6.63;2.53;;;;;;;;;;5073068;28;20470;-84
2023/08/14 11:59:01;;;;;;;4.97;2.30;;;;;;;;;;5056553;28;20438;-86
2023/08/14 12:01:27;;;;;;;6.88;2.58;;;;;;;;;;5073015;28;20488;-86
2023/08/14 12:03:54;;;;;;;4.82;2.40;;;;;;;;;;5066814;28;20486;-86
2023/08/14 12:06:22;;;;;;;5.65;2.40;;;;;;;;;;5036119;28;20408;-88
2023/08/14 12:08:49;;;;;;;4.40;2.13;;;;;;;;;;5035744;28;20400;-88
2023/08/14 12:11:21;;;;;;;4.82;2.15;;;;;;;;;;5020137;28;20427;-88
2023/08/14 12:13:53;;;;;;;6.05;2.30;;;;;;;;;;5036151;28;20423;-88
2023/08/14 12:16:23;;;;;;;5.35;2.20;;;;;;;;;;5020113;28;20444;-88
2023/08/14 12:18:49;;;;;;;5.32;2.20;;;;;;;;;;5036001;28;20450;-88
2023/08/14 12:21:18;;;;;;;5.50;2.25;;;;;;;;;;5036142;28;20408;-86
2023/08/14 12:23:49;;;;;;;5.40;2.10;;;;;;;;;;5035730;28;20486;-88
2023/08/14 12:26:18;;;;;;;4.50;2.37;;;;;;;;;;5036014;28;20418;-87
2023/08/14 12:28:44;;;;;;;5.90;2.30;;;;;;;;;;5036147;28;20470;-88
2023/08/14 12:31:11;;;;;;;4.27;2.00;;;;;;;;;;5036081;28;20412;-87
2023/08/14 12:33:39;;;;;;;5.50;2.20;;;;;;;;;;5036051;28;20426;-88
2023/08/14 12:36:05;;;;;;;5.53;2.43;;;;;;;;;;5036274;28;20418;-87
2023/08/14 12:38:31;;;;;;;4.28;2.40;;;;;;;;;;5035892;28;20404;-88
2023/08/14 12:40:59;;;;;;;6.22;2.35;;;;;;;;;;5035594;28;20411;-88
2023/08/14 12:43:25;;;;;;;5.50;2.45;;;;;;;;;;5036084;28;20502;-87
2023/08/14 12:45:51;;;;;;;7.35;2.45;;;;;;;;;;5035623;28;20475;-87
2023/08/14 12:48:17;;;;;;;6.63;2.30;;;;;;;;;;5035802;28;20400;-88
2023/08/14 12:50:45;;;;;;;6.05;2.40;;;;;;;;;;5036012;28;20407;-87
2023/08/14 12:53:16;;;;;;;5.45;2.30;;;;;;;;;;5020112;28;20407;-86
2023/08/14 12:55:48;;;;;;;3.78;2.08;;;;;;;;;;5035631;28;20438;-86
2023/08/14 12:58:14;;;;;;;4.60;2.20;;;;;;;;;;5035721;28;20416;-84
2023/08/14 13:00:43;;;;;;;5.55;2.22;;;;;;;;;;5036374;28;20487;-85
2023/08/14 13:03:09;;;;;;;5.25;2.22;;;;;;;;;;5036886;28;20435;-85
2023/08/14 13:05:35;;;;;;;5.73;2.40;;;;;;;;;;5053534;28;20437;-84
2023/08/14 13:08:02;;;;;;;4.17;2.40;;;;;;;;;;5055597;28;20532;-84
2023/08/14 13:10:28;;;;;;;4.67;2.30;;;;;;;;;;5072256;28;20411;-84
2023/08/14 13:12:56;;;;;;;4.05;2.03;;;;;;;;;;5072072;28;20457;-85
2023/08/14 13:15:23;;;;;;;4.63;2.10;;;;;;;;;;5055238;28;20421;-84
2023/08/14 13:17:49;;;;;;;6.78;2.25;;;;;;;;;;5038604;28;20406;-85
2023/08/14 13:20:15;;;;;;;4.10;2.10;;;;;;;;;;5052716;28;20420;-85
2023/08/14 13:22:41;;;;;;;4.65;2.05;;;;;;;;;;5056184;28;20433;-84
2023/08/14 13:25:07;;;;;;;4.83;1.97;;;;;;;;;;5055577;28;20462;-86
2023/08/14 13:27:36;;;;;;;7.82;2.47;;;;;;;;;;5056096;28;20466;-85
2023/08/14 13:30:15;;;;;;;;;;;;;;;;;;;;;
2023/08/14 13:33:02;;;;;;;4.18;2.10;;;;;;;;;;5073045;28;20417;-91
2023/08/14 13:35:49;;;;;;;3.72;1.80;;;;;;;;;;5061777;28;20405;-90
2023/08/14 13:41:12;;;;;;;5.25;2.03;;;;;;;;;;5033638;28;20461;-88
2023/08/14 13:43:55;;;;;;;4.35;2.10;;;;;;;;;;5054511;28;20475;-88
2023/08/14 13:46:26;;;;;;;4.93;2.00;;;;;;;;;;5071451;28;20494;-89
2023/08/14 13:49:11;;;;;;;;;;;;;;;;;;;;;
2023/08/14 13:51:56;;;;;;;5.38;2.00;;;;;;;;;;5072227;28;20412;-91
2023/08/14 13:57:49;;;;;;;4.30;2.20;;;;;;;;;;5073102;28;20478;-90
2023/08/14 14:00:16;;;;;;;4.68;1.92;;;;;;;;;;5071268;28;20414;-90
2023/08/14 14:02:42;;;;;;;4.65;2.08;;;;;;;;;;5071611;28;20410;-89
2023/08/14 14:05:18;;;;;;;4.97;2.20;;;;;;;;;;5057229;28;20447;-91
2023/08/14 14:07:52;;;;;;;5.22;2.00;;;;;;;;;;5019446;28;20404;-89
2023/08/14 14:10:25;;;;;;;6.40;2.03;;;;;;;;;;5035856;28;20404;-90
2023/08/14 14:12:58;;;;;;;4.00;1.90;;;;;;;;;;5035046;28;20502;-90
2023/08/14 14:15:33;;;;;;;4.05;2.00;;;;;;;;;;5034621;28;20404;-89
2023/08/14 14:18:04;;;;;;;3.83;2.00;;;;;;;;;;5035132;28;20415;-89
2023/08/14 14:20:33;;;;;;;3.78;2.00;;;;;;;;;;5035024;28;20408;-89
2023/08/14 14:23:08;;;;;;;5.55;2.10;;;;;;;;;;5034623;28;20427;-89
2023/08/14 14:25:34;;;;;;;4.68;2.00;;;;;;;;;;5034327;28;20432;-89
2023/08/14 14:28:02;;;;;;;5.30;2.05;;;;;;;;;;5034830;28;20470;-90
2023/08/14 14:31:06;;;;;;;6.30;2.30;;;;;;;;;;5035741;28;20412;-89
2023/08/14 14:33:32;;;;;;;4.43;1.90;;;;;;;;;;5031697;28;20411;-90
2023/08/14 14:36:17;;;;;;;5.57;2.22;;;;;;;;;;5038520;28;20444;-90
2023/08/14 14:38:48;;;;;;;4.35;2.00;;;;;;;;;;5037304;28;20491;-89
2023/08/14 14:41:14;;;;;;;4.03;2.13;;;;;;;;;;5035473;28;20432;-87
2023/08/14 14:43:40;;;;;;;4.27;1.90;;;;;;;;;;5037270;28;20434;-84
2023/08/14 14:46:06;;;;;;;4.53;1.90;;;;;;;;;;5037431;28;20416;-84
2023/08/14 14:48:32;;;;;;;5.57;2.10;;;;;;;;;;5022220;28;20408;-84
2023/08/14 14:50:58;;;;;;;5.22;2.00;;;;;;;;;;5021764;28;20404;-84